Terminal Aerodrome Forecast
Issued by NWS Quad Cities IA IL

Home | Current Version | Previous Version | Text Only | Print | Product List | Glossary On
Versions: 1 2 3 4 5 6 7 8 9 10 11 12 13 14 15 16 17
089
FTUS43 KDVN 272008 AAA
TAFMLI
TAF AMD
KMLI 272008Z 2720/2818 16004KT P6SM BKN035 BKN120
     FM280100 VRB03KT P6SM SCT035 BKN120
     FM280300 10003KT P6SM VCSH BKN035 BKN100
      TEMPO 2804/2807 4SM -SHRA BR
     FM280700 13003KT 6SM BR SCT035 BKN100
     FM281000 VRB03KT 4SM BR BKN100
     FM281400 04004KT 6SM BR SCT035 BKN100=

USA.gov is the U.S. government's official web portal to all federal, state and local government web resources and services.